createdAt,value
2019-03-15T00:00:19.730Z,86.28
2019-03-15T00:02:48.137Z,86.75
2019-03-15T00:05:16.531Z,86.73
2019-03-15T00:07:44.919Z,86.42
2019-03-15T00:10:14.247Z,86.26
2019-03-15T00:12:42.774Z,85.63
2019-03-15T00:15:11.230Z,86.07
2019-03-15T00:17:39.626Z,86.36
2019-03-15T00:20:09.554Z,86.21
2019-03-15T00:22:37.969Z,86.32
2019-03-15T00:25:06.812Z,85.83
2019-03-15T00:27:35.214Z,85.22
2019-03-15T00:30:05.655Z,85.75
2019-03-15T00:32:34.058Z,85.22
2019-03-15T00:35:02.446Z,85.28
2019-03-15T00:37:31.007Z,85.12
2019-03-15T00:39:59.697Z,85.62
2019-03-15T00:42:28.100Z,85.89
2019-03-15T00:44:56.492Z,86.19
2019-03-15T00:47:24.891Z,85.98
2019-03-15T00:49:53.288Z,85.90
2019-03-15T00:52:21.692Z,86.04
2019-03-15T00:54:50.085Z,85.92
2019-03-15T00:57:18.483Z,85.97
2019-03-15T00:59:46.943Z,85.90
2019-03-15T01:02:15.345Z,85.93
2019-03-15T01:04:43.736Z,86.11
2019-03-15T01:07:12.133Z,85.96
2019-03-15T01:09:40.528Z,86.05
2019-03-15T01:12:08.929Z,86.53
2019-03-15T01:14:37.316Z,86.56
2019-03-15T01:17:05.709Z,86.90
2019-03-15T01:19:34.103Z,86.80
2019-03-15T01:22:02.576Z,87.06
2019-03-15T01:24:31.045Z,87.26
2019-03-15T01:26:59.532Z,87.35
2019-03-15T01:29:27.922Z,87.11
2019-03-15T01:31:56.324Z,87.20
2019-03-15T01:34:24.733Z,86.96
2019-03-15T01:36:53.118Z,87.14
2019-03-15T01:39:21.511Z,87.37
2019-03-15T01:41:49.955Z,87.08
2019-03-15T01:44:18.304Z,86.83
2019-03-15T01:46:46.702Z,86.90
2019-03-15T01:49:15.108Z,86.49
2019-03-15T01:51:43.533Z,86.50
2019-03-15T01:54:11.989Z,86.37
2019-03-15T01:56:40.403Z,86.27
2019-03-15T01:59:08.783Z,86.19
2019-03-15T02:01:37.186Z,86.46
2019-03-15T02:04:05.915Z,86.22
2019-03-15T02:06:34.590Z,86.15
2019-03-15T02:09:04.157Z,86.33
2019-03-15T02:11:32.546Z,86.98
2019-03-15T02:14:01.699Z,86.87
2019-03-15T02:16:30.152Z,87.01
2019-03-15T02:18:58.549Z,86.90
2019-03-15T02:21:26.941Z,86.95
2019-03-15T02:23:55.372Z,87.24
2019-03-15T02:26:23.751Z,87.09
2019-03-15T02:28:52.153Z,87.06
2019-03-15T02:31:20.898Z,87.36
2019-03-15T02:33:49.528Z,87.08
2019-03-15T02:36:17.923Z,87.35
2019-03-15T02:38:46.336Z,87.72
2019-03-15T02:41:14.735Z,88.25
2019-03-15T02:43:43.155Z,88.35
2019-03-15T02:46:11.520Z,87.98
2019-03-15T02:48:40.644Z,88.09
2019-03-15T02:51:09.306Z,88.18
2019-03-15T02:53:37.701Z,87.80
2019-03-15T02:56:06.099Z,87.94
2019-03-15T02:58:34.496Z,87.98
2019-03-15T03:01:02.898Z,88.03
2019-03-15T03:03:31.330Z,87.90
2019-03-15T03:06:01.294Z,88.12
2019-03-15T03:08:30.004Z,88.53
2019-03-15T03:10:58.492Z,88.73
2019-03-15T03:13:26.891Z,88.77
2019-03-15T03:15:55.283Z,88.75
2019-03-15T03:18:23.699Z,88.47
2019-03-15T03:20:52.151Z,88.65
2019-03-15T03:23:20.507Z,88.54
2019-03-15T03:25:48.904Z,88.49
2019-03-15T03:28:17.312Z,88.80
2019-03-15T03:30:46.896Z,89.31
2019-03-15T03:33:15.676Z,89.28
2019-03-15T03:35:44.067Z,89.64
2019-03-15T03:38:12.612Z,89.93
2019-03-15T03:40:40.982Z,90.60
2019-03-15T03:43:09.407Z,90.76
2019-03-15T03:48:44.341Z,90.32
2019-03-15T03:51:12.738Z,89.60
2019-03-15T03:54:00.480Z,89.30
2019-03-15T03:56:47.990Z,88.94
2019-03-15T03:59:16.391Z,88.65
2019-03-15T04:02:03.902Z,88.66
2019-03-15T04:05:12.218Z,88.43
2019-03-15T04:07:59.794Z,88.28
2019-03-15T04:10:28.194Z,88.99
2019-03-15T04:13:15.918Z,89.17
2019-03-15T04:16:03.430Z,89.45
2019-03-15T04:18:31.830Z,89.48
2019-03-15T04:21:00.217Z,89.47
2019-03-15T04:23:28.638Z,89.29
2019-03-15T04:33:44.491Z,89.44
2019-03-15T04:36:32.131Z,89.71
2019-03-15T04:39:00.526Z,89.45
2019-03-15T04:41:48.167Z,89.98
2019-03-15T04:44:16.571Z,89.63
2019-03-15T04:46:44.977Z,89.46
2019-03-15T04:49:53.286Z,89.73
2019-03-15T04:52:21.675Z,89.55
2019-03-15T04:55:09.322Z,89.07
2019-03-15T04:57:37.718Z,89.77
2019-03-15T05:00:25.653Z,88.90
2019-03-15T05:03:13.294Z,88.45
2019-03-15T05:05:41.694Z,88.53
2019-03-15T05:08:10.081Z,88.52
2019-03-15T05:10:38.483Z,88.36
2019-03-15T05:13:06.870Z,87.92
2019-03-15T05:15:54.513Z,87.45
2019-03-15T05:18:22.904Z,87.42
2019-03-15T05:20:51.551Z,87.94
2019-03-15T05:23:19.948Z,87.71
2019-03-15T05:26:08.137Z,87.67
2019-03-15T05:28:36.566Z,87.50
2019-03-15T05:31:04.980Z,87.52
2019-03-15T05:33:33.409Z,87.48
2019-03-15T05:36:21.104Z,87.12
2019-03-15T05:41:36.965Z,87.27
2019-03-15T05:44:05.392Z,87.83
2019-03-15T05:46:33.827Z,87.83
2019-03-15T05:49:02.300Z,87.70
2019-03-15T05:51:30.782Z,87.07
2019-03-15T05:53:59.243Z,85.90
2019-03-15T05:56:27.771Z,85.76
2019-03-15T05:58:56.212Z,85.60
2019-03-15T06:01:24.657Z,84.82
2019-03-15T06:03:53.174Z,85.22
2019-03-15T06:06:21.670Z,85.27
2019-03-15T06:08:50.153Z,84.97
2019-03-15T06:11:18.734Z,84.94
2019-03-15T06:13:47.352Z,85.07
2019-03-15T06:16:15.816Z,85.20
2019-03-15T06:18:44.344Z,84.57
2019-03-15T06:21:12.850Z,84.98
2019-03-15T06:23:41.366Z,85.08
2019-03-15T06:26:09.799Z,85.67
2019-03-15T06:31:12.590Z,84.84
2019-03-15T06:33:41.091Z,84.24
2019-03-15T06:36:09.615Z,84.76
2019-03-15T06:38:38.138Z,85.18
2019-03-15T06:41:06.691Z,85.52
2019-03-15T06:43:35.218Z,85.16
2019-03-15T06:46:22.916Z,84.70
2019-03-15T06:48:51.457Z,84.12
2019-03-15T06:51:19.988Z,84.20
2019-03-15T06:53:48.573Z,83.13
2019-03-15T06:56:17.068Z,82.85
2019-03-15T06:58:45.527Z,82.90
2019-03-15T07:01:13.999Z,82.06
2019-03-15T07:03:42.477Z,82.27
2019-03-15T07:06:11.056Z,82.02
2019-03-15T07:08:39.936Z,81.90
2019-03-15T07:11:09.766Z,81.10
2019-03-15T07:13:38.323Z,80.78
2019-03-15T07:16:06.783Z,80.43
2019-03-15T07:18:35.626Z,80.27
2019-03-15T07:21:05.501Z,79.43
2019-03-15T07:23:33.989Z,79.54
2019-03-15T07:26:02.429Z,79.39
2019-03-15T07:28:30.942Z,79.68
2019-03-15T07:30:59.342Z,79.85
2019-03-15T07:33:46.978Z,80.59
2019-03-15T07:36:15.371Z,80.85
2019-03-15T07:38:43.763Z,80.81
2019-03-15T07:41:31.509Z,80.03
2019-03-15T07:44:19.158Z,80.12
2019-03-15T07:52:08.788Z,79.87
2019-03-15T07:54:38.451Z,79.80
2019-03-15T08:00:55.300Z,79.08
2019-03-15T08:03:23.692Z,78.29
2019-03-15T08:08:25.940Z,76.16
2019-03-15T08:10:55.115Z,75.86
2019-03-15T08:13:24.417Z,75.39
2019-03-15T08:15:52.820Z,75.22
2019-03-15T08:18:21.210Z,75.45
2019-03-15T08:20:49.619Z,75.10
2019-03-15T08:23:18.014Z,74.59
2019-03-15T08:26:05.746Z,73.84
2019-03-15T08:31:40.921Z,72.21
2019-03-15T08:34:09.337Z,71.53
2019-03-15T08:36:56.987Z,70.34
2019-03-15T08:39:44.516Z,69.64
2019-03-15T08:42:34.623Z,69.21
2019-03-15T08:45:02.287Z,68.54
2019-03-15T08:47:30.694Z,69.70
2019-03-15T08:49:59.104Z,71.72
2019-03-15T08:52:46.684Z,73.26
2019-03-15T08:55:55.024Z,72.16
2019-03-15T08:58:23.428Z,72.00
2019-03-15T09:00:51.856Z,72.83
2019-03-15T09:03:27.803Z,73.12
2019-03-15T09:05:50.514Z,74.08
2019-03-15T09:08:18.909Z,74.18
2019-03-15T09:10:47.358Z,74.15
2019-03-15T09:13:15.791Z,73.82
2019-03-15T09:18:18.115Z,75.65
2019-03-15T09:20:46.573Z,75.70
2019-03-15T09:23:15.058Z,75.35
2019-03-15T09:25:43.517Z,76.66
2019-03-15T09:28:11.934Z,77.91
2019-03-15T09:30:40.374Z,79.67
2019-03-15T09:33:08.795Z,81.05
2019-03-15T09:35:37.270Z,81.45
2019-03-15T09:38:24.931Z,81.41
2019-03-15T09:41:12.720Z,81.89
2019-03-15T09:43:41.156Z,81.65
2019-03-15T09:46:28.842Z,81.99
2019-03-15T09:48:59.745Z,82.06
2019-03-15T09:51:27.435Z,81.24
2019-03-15T09:54:14.974Z,80.86
2019-03-15T09:56:43.419Z,80.61
2019-03-15T09:59:11.865Z,81.44
2019-03-15T10:01:59.633Z,79.60
2019-03-15T10:04:28.067Z,79.13
2019-03-15T10:06:56.486Z,78.91
2019-03-15T10:09:46.234Z,78.59
2019-03-15T10:12:14.196Z,79.32
2019-03-15T10:15:01.726Z,79.13
2019-03-15T10:17:30.181Z,79.90
2019-03-15T10:19:58.618Z,79.59
2019-03-15T10:22:27.091Z,79.96
2019-03-15T10:24:55.530Z,80.68
2019-03-15T10:27:43.087Z,80.60
2019-03-15T10:30:51.429Z,81.44
2019-03-15T10:33:19.858Z,83.05
2019-03-15T10:38:35.749Z,84.07
2019-03-15T10:41:23.450Z,84.34
2019-03-15T10:43:51.856Z,84.46
2019-03-15T10:46:20.280Z,85.33
2019-03-15T10:48:48.724Z,86.54
2019-03-15T10:51:17.193Z,85.52
2019-03-15T10:56:33.063Z,87.25
2019-03-15T10:59:01.483Z,88.02
2019-03-15T11:01:29.934Z,89.05
2019-03-15T11:04:17.616Z,88.58
2019-03-15T11:07:26.043Z,89.39
2019-03-15T11:12:41.952Z,90.55
2019-03-15T11:15:29.718Z,90.89
2019-03-15T11:17:58.157Z,91.15
2019-03-15T11:20:26.579Z,91.29
2019-03-15T11:23:06.733Z,91.14
2019-03-15T11:25:25.228Z,91.45
2019-03-15T11:30:27.367Z,92.58
2019-03-15T11:32:55.818Z,93.29
2019-03-15T11:35:24.243Z,93.42
2019-03-15T11:38:11.931Z,93.94
2019-03-15T11:40:40.382Z,94.27
2019-03-15T11:43:08.806Z,94.50
2019-03-15T11:45:56.411Z,95.20
2019-03-15T11:48:24.832Z,95.43
2019-03-15T11:50:53.228Z,95.70
2019-03-15T11:53:21.667Z,95.58
2019-03-15T11:55:50.099Z,96.65
2019-03-15T11:58:18.530Z,97.30
2019-03-15T12:00:46.935Z,97.26
2019-03-15T12:05:49.371Z,97.48
2019-03-15T12:08:17.809Z,97.74
2019-03-15T12:10:46.258Z,98.45
2019-03-15T12:13:33.804Z,98.22
2019-03-15T12:16:02.200Z,98.61
2019-03-15T12:21:04.709Z,98.54
2019-03-15T12:23:33.140Z,99.35
2019-03-15T12:26:01.627Z,99.46
2019-03-15T12:28:49.346Z,99.59
2019-03-15T12:34:24.478Z,99.78
2019-03-15T12:37:12.024Z,99.59
2019-03-15T12:39:59.718Z,99.39
2019-03-15T12:42:28.298Z,98.75
2019-03-15T12:45:15.960Z,98.26
2019-03-15T12:47:44.441Z,97.90
2019-03-15T12:50:52.825Z,97.90
2019-03-15T12:55:55.379Z,96.41
2019-03-15T12:58:23.800Z,96.29
2019-03-15T13:00:52.250Z,96.56
2019-03-15T13:03:39.974Z,96.14
2019-03-15T13:08:55.879Z,95.22
2019-03-15T13:11:24.289Z,95.33
2019-03-15T13:14:11.991Z,94.78
2019-03-15T13:16:40.597Z,94.27
2019-03-15T13:19:09.063Z,93.85
2019-03-15T13:21:37.541Z,93.80
2019-03-15T13:24:05.978Z,93.86
2019-03-15T13:26:34.373Z,94.17
2019-03-15T13:29:02.861Z,94.13
2019-03-15T13:31:31.234Z,93.02
2019-03-15T13:33:59.634Z,92.60
2019-03-15T13:36:28.187Z,92.84
2019-03-15T13:38:56.589Z,91.79
2019-03-15T13:41:25.078Z,91.39
2019-03-15T13:43:53.494Z,89.90
2019-03-15T13:46:21.938Z,88.95
2019-03-15T13:48:50.287Z,87.83
2019-03-15T13:51:18.690Z,87.40
2019-03-15T13:53:47.098Z,86.35
2019-03-15T13:56:15.488Z,85.92
2019-03-15T13:58:56.302Z,85.44
2019-03-15T14:01:14.014Z,84.86
2019-03-15T14:03:42.424Z,83.70
2019-03-15T14:06:10.805Z,82.25
2019-03-15T14:08:39.207Z,80.67
2019-03-15T14:11:07.594Z,81.44
2019-03-15T14:13:36.003Z,80.01
2019-03-15T14:16:04.405Z,84.59
2019-03-15T14:18:32.803Z,84.30
2019-03-15T14:21:01.202Z,85.19
2019-03-15T14:23:29.589Z,85.40
2019-03-15T14:25:57.995Z,83.22
2019-03-15T14:28:26.387Z,82.03
2019-03-15T14:30:54.795Z,81.46
2019-03-15T14:33:23.192Z,79.58
2019-03-15T14:35:51.676Z,82.15
2019-03-15T14:38:20.083Z,81.50
2019-03-15T14:40:48.624Z,83.49
2019-03-15T14:43:17.260Z,82.30
2019-03-15T14:45:45.968Z,81.92
2019-03-15T14:48:14.378Z,82.04
2019-03-15T14:50:42.815Z,82.30
2019-03-15T14:53:12.051Z,81.40
2019-03-15T14:55:40.448Z,81.44
2019-03-15T14:58:08.841Z,81.32
2019-03-15T15:00:37.250Z,80.03
2019-03-15T15:03:05.666Z,80.16
2019-03-15T15:05:34.072Z,79.57
2019-03-15T15:08:02.495Z,79.69
2019-03-15T15:10:30.899Z,80.53
2019-03-15T15:12:59.290Z,79.89
2019-03-15T15:15:27.686Z,78.84
2019-03-15T15:17:56.080Z,79.44
2019-03-15T15:20:24.478Z,78.71
2019-03-15T15:22:52.876Z,78.23
2019-03-15T15:25:21.304Z,78.09
2019-03-15T15:27:49.762Z,77.94
2019-03-15T15:30:18.637Z,74.97
2019-03-15T15:32:47.035Z,74.33
2019-03-15T15:35:15.505Z,72.85
2019-03-15T15:37:43.895Z,72.25
2019-03-15T15:40:21.515Z,72.68
2019-03-15T15:42:49.919Z,72.98
2019-03-15T15:45:18.386Z,72.85
2019-03-15T15:47:46.778Z,73.30
2019-03-15T15:50:16.013Z,72.93
2019-03-15T15:52:44.401Z,72.75
2019-03-15T15:55:14.815Z,72.63
2019-03-15T15:57:43.181Z,71.83
2019-03-15T16:00:16.278Z,71.50
2019-03-15T16:02:44.759Z,70.01
2019-03-15T16:05:13.219Z,66.49
2019-03-15T16:07:41.615Z,66.78
2019-03-15T16:10:18.207Z,65.78
2019-03-15T16:12:46.603Z,64.95
2019-03-15T16:15:16.153Z,64.04
2019-03-15T16:17:46.072Z,63.66
2019-03-15T16:20:14.613Z,65.54
2019-03-15T16:22:43.007Z,64.68
2019-03-15T16:25:11.966Z,65.29
2019-03-15T16:27:40.362Z,64.83
2019-03-15T16:30:15.998Z,64.28
2019-03-15T16:32:44.398Z,64.41
2019-03-15T16:35:13.721Z,65.18
2019-03-15T16:37:42.142Z,63.71
2019-03-15T16:40:12.719Z,62.99
2019-03-15T16:42:41.115Z,62.73
2019-03-15T16:45:15.450Z,63.08
2019-03-15T16:47:43.894Z,62.55
2019-03-15T16:50:13.235Z,64.45
2019-03-15T16:52:41.673Z,64.62
2019-03-15T16:55:11.486Z,66.32
2019-03-15T16:57:39.883Z,67.37
2019-03-15T17:00:15.766Z,68.43
2019-03-15T17:02:44.225Z,69.28
2019-03-15T17:05:13.652Z,70.24
2019-03-15T17:07:42.940Z,71.63
2019-03-15T17:10:19.324Z,72.04
2019-03-15T17:12:47.718Z,72.47
2019-03-15T17:15:18.392Z,73.02
2019-03-15T17:17:46.784Z,73.37
2019-03-15T17:20:15.171Z,73.18
2019-03-15T17:22:43.606Z,73.31
2019-03-15T17:25:12.361Z,73.03
2019-03-15T17:27:40.929Z,72.45
2019-03-15T17:30:14.272Z,71.72
2019-03-15T17:32:42.848Z,70.47
2019-03-15T17:35:15.366Z,70.88
2019-03-15T17:37:43.775Z,69.79
2019-03-15T17:40:14.842Z,69.14
2019-03-15T17:42:43.248Z,65.92
2019-03-15T17:45:12.031Z,64.80
2019-03-15T17:47:40.595Z,63.73
2019-03-15T17:50:11.923Z,64.21
2019-03-15T17:52:40.319Z,64.70
2019-03-15T17:55:08.777Z,64.00
2019-03-15T17:57:37.182Z,65.98
2019-03-15T18:00:19.205Z,65.68
2019-03-15T18:02:47.601Z,65.60
2019-03-15T18:05:16.156Z,66.55
2019-03-15T18:07:44.553Z,67.33
2019-03-15T18:10:12.940Z,67.12
2019-03-15T18:12:41.388Z,66.41
2019-03-15T18:15:10.816Z,65.76
2019-03-15T18:17:39.217Z,66.75
2019-03-15T18:20:09.682Z,65.76
2019-03-15T18:22:38.081Z,65.30
2019-03-15T18:25:08.410Z,66.04
2019-03-15T18:27:36.812Z,65.85
2019-03-15T18:30:11.286Z,65.17
2019-03-15T18:32:39.676Z,65.29
2019-03-15T18:35:09.700Z,65.32
2019-03-15T18:37:38.269Z,64.64
2019-03-15T18:40:15.618Z,64.56
2019-03-15T18:42:43.992Z,65.14
2019-03-15T18:45:14.599Z,64.38
2019-03-15T18:47:42.999Z,64.47
2019-03-15T18:50:25.112Z,64.66
2019-03-15T18:52:53.572Z,64.48
2019-03-15T18:55:21.965Z,65.47
2019-03-15T18:57:50.525Z,65.27
2019-03-15T19:00:20.145Z,65.76
2019-03-15T19:02:48.816Z,65.30
2019-03-15T19:05:17.374Z,65.15
2019-03-15T19:07:45.849Z,65.30
2019-03-15T19:10:17.386Z,65.58
2019-03-15T19:12:45.796Z,65.82
2019-03-15T19:15:19.129Z,65.68
2019-03-15T19:17:47.535Z,66.46
2019-03-15T19:20:16.759Z,66.13
2019-03-15T19:22:45.156Z,66.58
2019-03-15T19:25:53.450Z,66.81
2019-03-15T19:28:21.929Z,66.88
2019-03-15T19:30:50.322Z,67.40
2019-03-15T19:33:37.986Z,67.44
2019-03-15T19:36:25.561Z,67.84
2019-03-15T19:38:54.022Z,67.12
2019-03-15T19:41:22.561Z,67.73
2019-03-15T19:44:10.306Z,67.82
2019-03-15T19:46:38.696Z,67.52
2019-03-15T19:49:07.124Z,67.67
2019-03-15T19:51:35.513Z,67.49
2019-03-15T19:54:03.986Z,67.49
2019-03-15T19:56:32.374Z,67.56
2019-03-15T19:59:00.786Z,67.37
2019-03-15T20:01:29.259Z,68.04
2019-03-15T20:03:57.763Z,67.80
2019-03-15T20:06:26.179Z,66.74
2019-03-15T20:08:54.668Z,67.41
2019-03-15T20:11:23.075Z,67.87
2019-03-15T20:13:51.466Z,67.99
2019-03-15T20:16:19.852Z,67.76
2019-03-15T20:18:48.253Z,67.38
2019-03-15T20:21:16.648Z,67.37
2019-03-15T20:23:45.054Z,66.96
2019-03-15T20:26:13.445Z,66.81
2019-03-15T20:28:41.846Z,66.97
2019-03-15T20:31:10.244Z,67.72
2019-03-15T20:33:38.645Z,66.78
2019-03-15T20:36:07.038Z,66.96
2019-03-15T20:38:35.434Z,66.27
2019-03-15T20:41:04.003Z,66.43
2019-03-15T20:43:32.406Z,66.88
2019-03-15T20:46:00.951Z,66.58
2019-03-15T20:48:29.418Z,66.86
2019-03-15T20:50:57.920Z,66.81
2019-03-15T20:53:26.325Z,66.82
2019-03-15T20:55:54.876Z,67.00
2019-03-15T20:58:23.358Z,67.64
2019-03-15T21:00:51.783Z,67.93
2019-03-15T21:03:20.172Z,67.86
2019-03-15T21:05:48.577Z,68.17
2019-03-15T21:08:16.973Z,68.41
2019-03-15T21:10:45.371Z,68.38
2019-03-15T21:13:13.768Z,68.65
2019-03-15T21:15:42.167Z,69.37
2019-03-15T21:18:10.635Z,69.30
2019-03-15T21:20:39.034Z,69.72
2019-03-15T21:23:07.450Z,69.65
2019-03-15T21:25:35.950Z,69.63
2019-03-15T21:28:04.342Z,69.96
2019-03-15T21:30:32.752Z,69.86
2019-03-15T21:33:01.180Z,70.35
2019-03-15T21:35:29.573Z,70.66
2019-03-15T21:37:58.035Z,70.51
2019-03-15T21:40:26.439Z,70.56
2019-03-15T21:42:54.834Z,70.74
2019-03-15T21:45:23.239Z,71.16
2019-03-15T21:47:51.636Z,71.05
2019-03-15T21:50:23.259Z,71.00
2019-03-15T21:52:51.632Z,70.86
2019-03-15T21:55:20.039Z,71.11
2019-03-15T21:57:48.421Z,71.29
2019-03-15T22:00:21.139Z,71.31
2019-03-15T22:02:49.535Z,71.67
2019-03-15T22:05:17.941Z,71.59
2019-03-15T22:07:46.358Z,71.42
2019-03-15T22:10:15.610Z,71.72
2019-03-15T22:12:43.995Z,71.80
2019-03-15T22:15:13.241Z,72.10
2019-03-15T22:17:41.733Z,71.98
2019-03-15T22:20:17.844Z,72.33
2019-03-15T22:22:46.248Z,72.51
2019-03-15T22:25:14.658Z,72.58
2019-03-15T22:27:43.040Z,72.79
2019-03-15T22:30:12.788Z,72.96
2019-03-15T22:32:41.173Z,73.32
2019-03-15T22:35:09.562Z,73.55
2019-03-15T22:37:37.949Z,73.88
2019-03-15T22:40:13.841Z,74.05
2019-03-15T22:42:42.340Z,74.04
2019-03-15T22:45:11.863Z,74.72
2019-03-15T22:47:40.250Z,75.18
2019-03-15T22:50:12.638Z,75.10
2019-03-15T22:52:41.036Z,75.16
2019-03-15T22:55:10.965Z,75.50
2019-03-15T22:57:39.365Z,75.30
2019-03-15T23:00:15.474Z,75.57
2019-03-15T23:02:43.929Z,75.88
2019-03-15T23:05:12.754Z,76.00
2019-03-15T23:07:41.246Z,75.62
2019-03-15T23:10:10.887Z,75.79
2019-03-15T23:12:39.355Z,75.69
2019-03-15T23:15:11.780Z,75.91
2019-03-15T23:17:40.171Z,76.00
2019-03-15T23:20:10.936Z,75.64
2019-03-15T23:22:39.398Z,75.42
2019-03-15T23:25:08.347Z,75.51
2019-03-15T23:27:36.733Z,75.68
2019-03-15T23:30:13.204Z,75.90
2019-03-15T23:32:41.892Z,76.13
2019-03-15T23:35:10.299Z,76.07
2019-03-15T23:37:38.698Z,75.78
2019-03-15T23:40:11.561Z,75.94
2019-03-15T23:42:39.948Z,76.58
2019-03-15T23:45:10.344Z,76.59
2019-03-15T23:47:38.825Z,76.95
2019-03-15T23:50:10.079Z,76.55
2019-03-15T23:52:38.481Z,76.54
2019-03-15T23:55:07.047Z,76.69
2019-03-15T23:57:35.446Z,76.64
